Jamestown Regional Airport Jamestown US
ICAO: KJMS
IATA: JMS
Category: Medium
Scheduled Services: Yes

Elevation: 1500 ft
TransAlt. 18000 ft.

Airport Communications:
ASOS:118.425
MINNEAPOLIS CNTR:124.2
GRAND FORKS RDO:122.2
CTAF/UNICOM:123

KJMS Zoom In..

Runways:

(A) RW 04 length 5750 ft width 75 ft
---- / hdg 37

(B) RW 13 length 6502 ft width 100 ft
---- / hdg 127

(C) RW 22 length 5750 ft width 75 ft
---- / hdg 217

(D) RW 31 length 6502 ft width 100 ft
ILS 109.30 / hdg 307

Location; KJMS
Day. 24 / Time. 12.56 Zulu
* Altimeter: 29.83
* Temperature: 20° c. 68°f.
* Wind from: 180° Speed 07 kn.
Dewpoint: 16° c.
Visibility: 10 Statute Miles.
Clouds: Clear (automated report).

KJMS 241256Z AUTO 18007KT 10SM CLR 20/16 A2983 RMK AO2 SLP094 T02000156


Wind From 180°
Speed 07 kn.

 
 
jpsmedia.com for Web Design SOUNDCLOUD worldairports.se 2018   terms of use